Latest Coastal Weather Observations for Wynyard

IDT60701

Issued at 3:15 pm EST Friday 25 July 2014 (issued every 10 minutes, with the page automatically refreshed every 10 minutes)

About coastal observations | Map of coastal stations | Coastal observations for TAS | Marine services | Other Formats
Station Details ID: 091107 Name: WYNYARD AIRPORT Lat: -41.00 Lon: 145.73 Height: 12.0 m
Data from the previous 72 hours. | See also: Recent months at Wynyard
Date/Time
EST
Temp

°C
Wind Pressure Rain
since 9am
mm
Weather Cloud Vis
km
Sea
Height
m
Swell
Dir
 
Speed
knots
Gust
knots
hPa Trend Height
m
Period
s
Dir
25/03:00pm 12.4 E 8 12 1015.3 - 1.8 Recent precip. Cloudy 10 - - - -
25/02:54pm 12.4 E 8 13 1015.2 - 1.8 - Partly cloudy 10 - - - -
25/02:38pm 12.2 E 4 8 1015.1 - 1.8 - Partly cloudy 10 - - - -
25/02:30pm 11.9 E 7 11 1015.2 - 1.8 - Partly cloudy 10 - - - -
25/02:13pm 12.1 E 9 13 1015.1 - 1.6 - Partly cloudy 10 - - - -
25/02:00pm 12.1 E 11 16 1015.1 - 1.6 - Partly cloudy 10 - - - -
25/01:30pm 12.4 ESE 9 14 1015.1 - 1.6 - Partly cloudy 10 - - - -
25/01:22pm 12.5 E 7 11 1015.2 - 1.6 - Partly cloudy 10 - - - -
25/01:00pm 12.4 E 9 16 1015.4 - 1.6 - Partly cloudy 10 - - - -
25/12:53pm 12.5 E 11 15 1015.3 - 1.6 - Partly cloudy 10 - - - -
25/12:31pm 12.2 E 11 15 1015.4 - 1.6 - Partly cloudy 10 - - - -
25/12:30pm 12.2 E 11 15 1015.5 - 1.6 - Partly cloudy 10 - - - -
25/12:24pm 12.4 ESE 12 18 1015.5 - 1.6 - Partly cloudy 10 - - - -
25/12:13pm 12.2 ESE 12 15 1015.7 - 1.6 - Partly cloudy 10 - - - -
25/12:00pm 11.8 ESE 14 19 1015.9 - 1.6 Recent precip. Cloudy 10 - - - -
25/11:33am 11.6 ESE 13 18 1016.1 - 1.6 - Partly cloudy 10 - - - -
25/11:30am 11.5 ESE 13 18 1016.2 - 1.2 - Partly cloudy 10 - - - -
25/11:23am 11.4 ESE 11 15 1016.2 - 1.2 - Partly cloudy 10 - - - -
25/11:00am 11.9 E 9 14 1016.5 - 1.2 - Partly cloudy 10 - - - -
25/10:30am 11.6 ESE 11 15 1016.6 - 1.2 - Partly cloudy 10 - - - -
25/10:00am 11.3 ESE 11 15 1016.5 - 1.2 - Partly cloudy 10 - - - -
25/09:54am 11.4 ESE 11 14 1016.4 - 1.0 - Partly cloudy 10 - - - -
25/09:37am 11.4 ESE 12 15 1016.3 - 1.0 - Partly cloudy 10 - - - -
25/09:30am 11.4 ESE 11 17 1016.4 - 1.0 - Partly cloudy 10 - - - -
25/09:25am 11.5 ESE 10 14 1016.4 - 1.0 - Partly cloudy 10 - - - -
25/09:09am 11.5 ESE 9 12 1016.3 - 0.8 - Partly cloudy 5 - - - -
25/09:00am 11.6 ESE 9 13 1016.3 - 1.8 - Cloudy 10 - - - -
25/08:30am 11.6 ESE 10 14 1015.8 - 1.8 - Partly cloudy 10 - - - -
25/08:00am 11.4 ESE 10 14 1015.8 - 1.8 - Partly cloudy 10 - - - -
25/07:30am 11.3 ESE 13 16 1015.6 - 1.6 - Partly cloudy 8 - - - -
25/07:00am 11.2 ESE 10 12 1015.7 - 0.8 - Partly cloudy 8 - - - -
25/06:30am 11.3 ESE 9 12 1015.4 - 0.4 - Partly cloudy 10 - - - -
25/06:09am 11.5 ESE 11 14 1015.1 - 0.2 - Partly cloudy 10 - - - -
25/06:00am 11.6 ESE 11 15 1015.3 - 0.0 - Cloudy 10 - - - -
25/05:30am 11.7 ESE 9 14 1015.2 - 0.0 - Partly cloudy 10 - - - -
25/05:00am 11.9 ESE 11 14 1015.2 - 0.0 - Partly cloudy 10 - - - -
25/04:30am 11.9 ESE 9 13 1015.1 - 0.0 - Cloudy 10 - - - -
25/04:00am 12.1 E 9 14 1015.3 - 0.0 - Cloudy 10 - - - -
25/03:30am 11.9 ESE 7 10 1015.2 - 0.0 - Partly cloudy 10 - - - -
25/03:00am 12.0 ESE 8 11 1015.3 - 0.0 - Cloudy 10 - - - -
25/02:30am 11.8 ESE 9 11 1015.0 - 0.0 - Partly cloudy 10 - - - -
25/02:00am 11.9 ESE 10 13 1015.3 - 0.0 - Partly cloudy 10 - - - -
25/01:30am 11.8 ESE 8 11 1015.3 - 0.0 - Cloudy 10 - - - -
25/01:11am 12.0 ESE 9 13 1015.2 - 0.0 - Partly cloudy 10 - - - -
25/01:00am 12.2 ESE 11 15 1015.4 - 0.0 - Partly cloudy 10 - - - -
25/12:37am 12.1 ESE 12 16 1015.4 - 0.0 - Partly cloudy 10 - - - -
25/12:30am 12.2 ESE 12 16 1015.5 - 0.0 - Partly cloudy 10 - - - -
25/12:00am 12.3 E 10 14 1015.9 - 0.0 - Cloudy 10 - - - -
 
Date/Time
EST
Temp

°C
Wind Pressure Rain
since 9am
mm
Weather Cloud Vis
km
Sea
Height
m
Swell
Dir
 
Speed
knots
Gust
knots
hPa Trend Height
m
Period
s
Dir
24/11:30pm 12.3 ESE 12 16 1015.8 - 0.0 - Cloudy 10 - - - -
24/11:00pm 12.1 ESE 12 16 1016.0 - 0.0 - Partly cloudy 10 - - - -
24/10:30pm 12.1 ESE 14 18 1016.0 - 0.0 - Partly cloudy 10 - - - -
24/10:00pm 12.1 ESE 12 16 1016.1 - 0.0 - Partly cloudy 10 - - - -
24/09:50pm 12.1 ESE 11 17 1016.2 - 0.0 - Partly cloudy 10 - - - -
24/09:30pm 12.2 ESE 14 20 1016.0 - 0.0 - Partly cloudy 10 - - - -
24/09:00pm 12.4 ESE 15 19 1016.3 - 0.0 - Cloudy 10 - - - -
24/08:30pm 12.1 ESE 9 13 1016.3 - 0.0 - Partly cloudy 10 - - - -
24/08:00pm 12.3 ESE 10 14 1016.3 - 0.0 - Cloudy 10 - - - -
24/07:30pm 12.2 ESE 9 12 1016.1 - 0.0 - Partly cloudy 10 - - - -
24/07:00pm 12.3 SE 9 12 1016.1 - 0.0 - Partly cloudy 10 - - - -
24/06:30pm 12.3 ESE 9 12 1016.0 - 0.0 - Partly cloudy 10 - - - -
24/06:00pm 12.1 ESE 8 11 1016.2 - 0.0 - Cloudy 10 - - - -
24/05:30pm 12.0 ESE 10 13 1016.1 - 0.0 - Partly cloudy 10 - - - -
24/05:00pm 11.9 ESE 9 12 1016.2 - 0.0 - Partly cloudy 10 - - - -
24/04:30pm 12.2 E 9 13 1016.1 - 0.0 - Partly cloudy 10 - - - -
24/04:00pm 12.7 E 11 14 1016.0 - 0.0 - Partly cloudy 10 - - - -
24/03:30pm 12.6 ESE 12 16 1015.9 - 0.0 - - 10 - - - -
24/03:00pm 12.5 ESE 13 18 1015.9 - 0.0 - Mostly cloudy 10 - - - -
24/02:30pm 12.8 E 13 17 1016.0 - 0.0 - Partly cloudy 10 - - - -
24/02:00pm 13.2 E 13 19 1016.3 - 0.0 - Partly cloudy 10 - - - -
24/01:30pm 12.5 E 11 17 1016.7 - 0.0 - Partly cloudy 10 - - - -
24/01:00pm 12.6 E 13 19 1017.2 - 0.0 - Partly cloudy 10 - - - -
24/12:30pm 12.5 E 13 18 1017.3 - 0.0 - Partly cloudy 10 - - - -
24/12:00pm 12.0 E 13 18 1017.8 - 0.0 - Mostly cloudy 10 - - - -
24/11:30am 12.5 E 14 21 1018.0 - 0.0 - Partly cloudy 10 - - - -
24/11:00am 11.7 E 12 17 1018.4 - 0.0 - Partly cloudy 10 - - - -
24/10:30am 11.7 E 12 18 1018.8 - 0.0 - Cloudy 10 - - - -
24/10:00am 11.4 ESE 14 19 1018.6 - 0.0 - Partly cloudy 10 - - - -
24/09:30am 11.0 ESE 11 14 1018.7 - 0.0 - Cloudy 10 - - - -
24/09:00am 10.5 ESE 11 13 1018.7 - 0.0 - Cloudy 10 - - - -
24/08:30am 10.1 SE 9 13 1018.8 - 0.0 - Partly cloudy 10 - - - -
24/08:00am 9.7 ESE 10 13 1018.7 - 0.0 - Partly cloudy 10 - - - -
24/07:30am 9.4 ESE 8 12 1018.7 - 0.0 - Partly cloudy 10 - - - -
24/07:00am 8.8 SE 8 11 1018.7 - 0.0 - Partly cloudy 10 - - - -
24/06:30am 8.8 SE 6 8 1018.6 - 0.0 - Partly cloudy 10 - - - -
24/06:00am 7.7 SSE 5 7 1018.5 - 0.0 - Cloudy 10 - - - -
24/05:30am 6.8 W 2 5 1018.5 - 0.0 - Partly cloudy 10 - - - -
24/05:00am 7.9 SE 6 9 1018.6 - 0.0 - Partly cloudy 10 - - - -
24/04:30am 8.0 SE 7 9 1018.6 - 0.0 - Partly cloudy 10 - - - -
24/04:00am 7.3 SE 5 6 1019.0 - 0.0 - Partly cloudy 10 - - - -
24/03:30am 7.4 SSE 6 7 1019.1 - 0.0 - Partly cloudy 10 - - - -
24/03:00am 7.9 SSE 6 7 1019.3 - 0.0 - Mostly cloudy 10 - - - -
24/02:30am 8.0 SE 7 9 1019.4 - 0.0 - Cloudy 10 - - - -
24/02:00am 7.7 SSE 8 10 1019.5 - 0.0 - Cloudy 10 - - - -
24/01:30am 7.3 SSE 7 9 1019.7 - 0.0 - Cloudy 10 - - - -
24/01:00am 5.4 CALM 0 3 1019.9 - 0.0 - Cloudy 7 - - - -
24/12:34am 5.0 WNW 3 4 1020.0 - 0.0 - Cloudy 5 - - - -
24/12:30am 4.9 W 2 4 1020.1 - 0.0 - Cloudy 8 - - - -
24/12:00am 4.3 WSW 4 5 1020.5 - 0.0 - Cloudy 10 - - - -
 
Date/Time
EST
Temp

°C
Wind Pressure Rain
since 9am
mm
Weather Cloud Vis
km
Sea
Height
m
Swell
Dir
 
Speed
knots
Gust
knots
hPa Trend Height
m
Period
s
Dir
23/11:41pm 4.4 W 5 5 1020.7 - 0.0 - Partly cloudy 8 - - - -
23/11:30pm 4.5 W 5 6 1020.8 - 0.0 - Cloudy 5 - - - -
23/11:06pm 4.0 WNW 4 4 1020.8 - 0.0 - Cloudy 5 - - - -
23/11:00pm 4.2 W 3 4 1020.9 - 0.0 - Partly cloudy 9 - - - -
23/10:30pm 3.7 W 4 5 1021.2 - 0.0 - Partly cloudy 9 - - - -
23/10:00pm 3.9 W 5 6 1021.5 - 0.0 - Partly cloudy 6 - - - -
23/09:30pm 3.0 WNW 5 6 1021.5 - 0.0 - Partly cloudy 8 - - - -
23/09:28pm 3.1 WNW 4 6 1021.5 - 0.0 - Partly cloudy 7 - - - -
23/09:04pm 2.6 W 5 5 1021.6 - 0.0 - - 5 - - - -
23/09:03pm 2.6 W 5 5 1021.6 - 0.0 - - 6 - - - -
23/09:00pm 2.6 W 4 5 1021.6 - 0.0 - Cloudy 7 - - - -
23/08:43pm 2.7 W 4 5 1021.6 - 0.0 - - 5 - - - -
23/08:30pm 3.3 W 5 6 1021.6 - 0.0 - - 7 - - - -
23/08:24pm 3.3 W 5 6 1021.6 - 0.0 - - 7 - - - -
23/08:00pm 3.5 W 4 5 1021.4 - 0.0 - - 3 - - - -
23/07:30pm 3.7 WSW 3 4 1021.4 - 0.0 - - 0.8 - - - -
23/07:00pm 5.0 W 3 4 1021.4 - 0.0 - - 3 - - - -
23/06:47pm 4.1 WSW 4 4 1021.4 - 0.0 - - 5 - - - -
23/06:46pm 4.2 WSW 4 5 1021.4 - 0.0 - - 6 - - - -
23/06:30pm 4.0 CALM 0 2 1021.3 - 0.0 - - 6 - - - -
23/06:27pm 4.2 CALM 0 0 1021.2 - 0.0 - - 5 - - - -
23/06:00pm 5.0 S 4 5 1021.1 - 0.0 - - 10 - - - -
23/05:30pm 5.9 SSE 2 4 1021.1 - 0.0 - - 10 - - - -
23/05:00pm 9.1 CALM 0 0 1021.2 - 0.0 - - 10 - - - -
23/04:30pm 10.5 E 2 4 1021.2 - 0.0 - - 10 - - - -
23/04:00pm 11.0 E 3 4 1021.1 - 0.0 - - 10 - - - -
23/03:30pm 11.3 NE 4 5 1021.2 - 0.0 - - 10 - - - -
23/03:00pm 11.2 NE 5 7 1021.4 - 0.0 - - 10 - - - -
23/02:30pm 12.0 E 4 7 1021.3 - 0.0 - - 10 - - - -
23/02:00pm 11.5 NE 5 6 1021.9 - 0.0 - - 10 - - - -
23/01:30pm 11.4 ENE 5 6 1022.0 - 0.0 - - 10 - - - -
23/01:00pm 11.6 NE 6 8 1022.4 - 0.0 - - 10 - - - -
23/12:30pm 11.4 ESE 5 8 1022.7 - 0.0 - - 10 - - - -
23/12:00pm 11.2 SE 5 7 1023.3 - 0.0 - Mostly clear 10 - - - -
23/11:44am 10.7 E 5 7 1023.5 - 0.0 - Partly cloudy 10 - - - -
23/11:30am 10.6 E 4 6 1023.7 - 0.0 - Partly cloudy 10 - - - -
23/11:00am 8.3 CALM 0 0 1024.4 - 0.0 - Cloudy 10 - - - -
23/10:30am 6.5 W 3 4 1024.6 - 0.0 - Cloudy 10 - - - -
23/10:00am 5.4 WNW 6 6 1025.0 - 0.0 - Cloudy 10 - - - -
23/09:30am 4.8 WNW 6 7 1024.7 - 0.0 - Cloudy 10 - - - -
23/09:00am 4.3 WNW 6 7 1024.7 - 0.0 - Cloudy 10 - - - -
23/08:30am 2.9 WNW 6 7 1024.6 - 0.0 - Partly cloudy 10 - - - -
23/08:20am 2.3 WNW 7 7 1024.5 - 0.0 - Partly cloudy 10 - - - -
23/08:00am 1.5 WNW 8 9 1024.4 - 0.0 - - 10 - - - -
23/07:30am 0.3 WNW 6 7 1024.3 - 0.0 - - 10 - - - -
23/07:00am 0.8 WNW 7 7 1024.3 - 0.0 - - 10 - - - -
23/06:30am 0.9 WNW 6 8 1024.1 - 0.0 - - 10 - - - -
23/06:00am 0.9 WNW 7 8 1024.0 - 0.0 - - 10 - - - -
23/05:30am 1.2 WNW 6 7 1024.0 - 0.0 - - 10 - - - -
23/05:00am 1.4 WNW 7 8 1024.1 - 0.0 - - 10 - - - -
23/04:30am 1.4 WNW 6 7 1024.2 - 0.0 - - 10 - - - -
23/04:00am 1.9 WNW 7 8 1024.3 - 0.0 - - 10 - - - -
23/03:30am 2.1 WNW 6 8 1024.6 - 0.0 - - 10 - - - -
23/03:00am 2.5 WNW 6 8 1024.8 - 0.0 - - 10 - - - -
23/02:30am 1.9 WNW 7 7 1024.8 - 0.0 - - 10 - - - -
23/02:00am 2.6 WNW 6 7 1024.7 - 0.0 - - 10 - - - -
23/01:30am 1.4 W 6 6 1024.7 - 0.0 - - 7 - - - -
23/01:00am 2.4 W 6 7 1024.6 - 0.0 - - 10 - - - -
23/12:51am 2.7 W 7 7 1024.7 - 0.0 - - 10 - - - -
23/12:30am 2.4 W 5 6 1024.7 - 0.0 - - 2 - - - -
23/12:22am 2.8 WSW 5 6 1024.7 - 0.0 - - 5 - - - -
23/12:00am 2.7 WNW 6 7 1024.7 - 0.0 - Mostly clear 10 - - - -
 
Date/Time
EST
Temp

°C
Wind Pressure Rain
since 9am
mm
Weather Cloud Vis
km
Sea
Height
m
Swell
Dir
 
Speed
knots
Gust
knots
hPa Trend Height
m
Period
s
Dir
22/11:30pm 4.6 WNW 4 5 1025.0 - 0.0 - Partly cloudy 6 - - - -
22/11:00pm 5.6 W 5 6 1025.1 - 0.0 - Cloudy 10 - - - -
22/10:30pm 5.8 W 4 5 1025.2 - 0.0 - Cloudy 8 - - - -
22/10:00pm 5.5 WNW 6 7 1025.2 - 0.0 - Partly cloudy 10 - - - -
22/09:30pm 5.8 WNW 4 7 1025.2 - 0.0 - - 10 - - - -
22/09:00pm 5.4 WNW 5 7 1025.0 - 0.0 - Cloudy 10 - - - -
22/08:30pm 6.7 WNW 4 5 1024.8 - 0.0 - - 10 - - - -
22/08:00pm 5.8 W 5 5 1024.8 - 0.0 - - 10 - - - -
22/07:30pm 6.8 W 3 4 1024.8 - 0.0 - Partly cloudy 10 - - - -
22/07:00pm 7.1 SW 3 4 1024.8 - 0.0 - Cloudy 10 - - - -
22/06:30pm 7.4 SW 3 4 1024.7 - 0.0 - Partly cloudy 10 - - - -
22/06:00pm 7.1 WSW 5 6 1024.6 - 0.0 - Cloudy 10 - - - -
22/05:30pm 8.1 SSW 3 5 1024.5 - 0.0 - Partly cloudy 10 - - - -
22/05:00pm 10.4 NW 2 4 1024.3 - 0.0 - Partly cloudy 10 - - - -
22/04:30pm 10.9 WNW 4 6 1024.3 - 0.0 - - 10 - - - -
22/04:00pm 11.6 NW 5 7 1024.4 - 0.0 - Partly cloudy 10 - - - -
22/03:30pm 12.1 N 6 7 1024.4 - 0.0 - Partly cloudy 10 - - - -

Other Formats:

Comma delimited format used in spreadsheet applications
http://www.bom.gov.au/fwo/IDT60701/IDT60701.95957.axf

JavaScript Object Notation format (JSON) in row-major order
http://www.bom.gov.au/fwo/IDT60701/IDT60701.95957.json